createdAt,value
2023-01-20T00:00:20.253Z,22.50
2023-01-20T00:03:09.831Z,22.42
2023-01-20T00:05:39.148Z,27.55
2023-01-20T00:08:08.721Z,23.52
2023-01-20T00:10:39.637Z,28.25
2023-01-20T00:13:09.121Z,21.13
2023-01-20T00:15:39.861Z,28.90
2023-01-20T00:18:09.393Z,29.67
2023-01-20T00:20:38.723Z,25.35
2023-01-20T00:23:08.325Z,22.27
2023-01-20T00:25:37.727Z,27.95
2023-01-20T00:28:07.585Z,17.83
2023-01-20T00:30:38.239Z,20.50
2023-01-20T00:33:07.807Z,26.60
2023-01-20T00:35:38.880Z,20.35
2023-01-20T00:38:08.490Z,19.80
2023-01-20T00:40:37.732Z,22.15
2023-01-20T00:43:07.278Z,23.58
2023-01-20T00:45:36.737Z,22.98
2023-01-20T00:48:08.458Z,26.98
2023-01-20T00:50:37.694Z,27.70
2023-01-20T00:53:07.275Z,24.45
2023-01-20T00:55:36.674Z,25.83
2023-01-20T00:58:06.327Z,23.77
2023-01-20T01:00:35.752Z,19.02
2023-01-20T01:03:07.036Z,22.48
2023-01-20T01:05:36.548Z,28.67
2023-01-20T01:08:06.443Z,24.27
2023-01-20T01:10:35.893Z,23.63
2023-01-20T01:13:06.407Z,24.80
2023-01-20T01:15:35.791Z,26.63
2023-01-20T01:18:06.988Z,19.88
2023-01-20T01:20:36.273Z,27.52
2023-01-20T01:23:05.903Z,20.23
2023-01-20T01:25:35.164Z,20.90
2023-01-20T01:28:05.001Z,21.55
2023-01-20T01:30:34.298Z,26.65
2023-01-20T01:33:04.011Z,18.95
2023-01-20T01:35:34.751Z,27.50
2023-01-20T01:38:04.382Z,24.27
2023-01-20T01:40:34.477Z,27.60
2023-01-20T01:43:04.268Z,22.88
2023-01-20T01:45:35.010Z,21.38
2023-01-20T01:48:09.343Z,23.90
2023-01-20T01:50:45.682Z,24.05
2023-01-20T01:53:16.585Z,23.83
2023-01-20T01:55:50.963Z,22.92
2023-01-20T01:58:25.902Z,25.25
2023-01-20T02:00:55.387Z,23.95
2023-01-20T02:03:25.442Z,23.05
2023-01-20T02:05:57.293Z,19.05
2023-01-20T02:08:27.609Z,21.70
2023-01-20T02:10:56.789Z,20.42
2023-01-20T02:13:26.475Z,26.00
2023-01-20T02:16:04.385Z,24.45
2023-01-20T02:18:47.712Z,24.40
2023-01-20T02:22:03.496Z,23.35
2023-01-20T02:25:20.847Z,31.00
2023-01-20T02:28:33.676Z,24.15
2023-01-20T02:31:36.104Z,24.35
2023-01-20T02:34:13.976Z,23.98
2023-01-20T02:36:49.063Z,25.17
2023-01-20T02:39:27.369Z,24.17
2023-01-20T02:42:04.952Z,24.67
2023-01-20T02:44:42.198Z,29.65
2023-01-20T02:47:18.311Z,21.42
2023-01-20T02:52:26.757Z,29.85
2023-01-20T02:55:00.380Z,27.58
2023-01-20T02:57:34.107Z,30.85
2023-01-20T03:00:09.310Z,27.83
2023-01-20T03:02:41.472Z,24.75
2023-01-20T03:05:19.066Z,21.52
2023-01-20T03:07:52.264Z,28.73
2023-01-20T03:10:26.069Z,24.30
2023-01-20T03:12:59.923Z,25.58
2023-01-20T03:15:37.677Z,25.77
2023-01-20T03:18:07.279Z,27.90
2023-01-20T03:20:38.532Z,24.85
2023-01-20T03:23:08.179Z,29.27
2023-01-20T03:25:39.235Z,23.25
2023-01-20T03:28:09.209Z,25.70
2023-01-20T03:35:44.097Z,27.40
2023-01-20T03:38:13.899Z,31.05
2023-01-20T03:40:50.300Z,32.10
2023-01-20T03:43:30.931Z,22.60
2023-01-20T03:46:06.656Z,28.67
2023-01-20T03:48:43.462Z,33.42
2023-01-20T03:51:19.719Z,30.25
2023-01-20T03:53:54.675Z,24.60
2023-01-20T03:56:28.536Z,25.02
2023-01-20T03:59:01.737Z,26.27
2023-01-20T04:01:36.360Z,24.52
2023-01-20T04:04:10.010Z,27.48
2023-01-20T04:06:43.864Z,30.42
2023-01-20T04:09:18.491Z,29.27
2023-01-20T04:11:47.848Z,21.58
2023-01-20T04:14:17.349Z,25.20
2023-01-20T04:16:53.280Z,30.23
2023-01-20T04:19:22.967Z,21.52
2023-01-20T04:22:01.374Z,22.95
2023-01-20T04:24:37.590Z,26.95
2023-01-20T04:29:36.061Z,22.83
2023-01-20T04:32:05.989Z,24.08
2023-01-20T04:34:35.660Z,25.42
2023-01-20T04:37:06.340Z,23.73
2023-01-20T04:39:35.808Z,28.00
2023-01-20T04:42:06.396Z,22.02
2023-01-20T04:44:35.870Z,25.33
2023-01-20T04:47:05.177Z,21.63
2023-01-20T04:49:35.459Z,25.23
2023-01-20T04:52:06.199Z,23.20
2023-01-20T04:54:36.046Z,24.35
2023-01-20T04:57:05.236Z,24.42
2023-01-20T04:59:34.663Z,26.30
2023-01-20T05:02:04.108Z,24.15
2023-01-20T05:04:33.696Z,23.52
2023-01-20T05:07:02.898Z,24.60
2023-01-20T05:09:33.995Z,31.75
2023-01-20T05:12:03.476Z,24.58
2023-01-20T05:14:32.985Z,28.40
2023-01-20T05:17:02.195Z,26.05
2023-01-20T05:19:31.774Z,25.52
2023-01-20T05:22:01.550Z,22.08
2023-01-20T05:24:32.436Z,22.00
2023-01-20T05:27:02.556Z,29.95
2023-01-20T05:29:32.236Z,26.33
2023-01-20T05:32:01.356Z,28.25
2023-01-20T05:34:30.728Z,22.90
2023-01-20T05:36:59.766Z,26.05
2023-01-20T05:39:29.304Z,29.00
2023-01-20T05:41:59.835Z,25.45
2023-01-20T05:44:29.571Z,17.00
2023-01-20T05:46:58.675Z,27.75
2023-01-20T05:49:28.273Z,22.27
2023-01-20T05:51:57.671Z,29.13
2023-01-20T05:54:27.388Z,26.50
2023-01-20T05:56:59.030Z,23.35
2023-01-20T05:59:28.733Z,28.77
2023-01-20T06:01:58.874Z,32.33
2023-01-20T06:04:29.029Z,31.25
2023-01-20T06:06:58.934Z,26.20
2023-01-20T06:09:28.386Z,27.15
2023-01-20T06:11:59.094Z,24.00
2023-01-20T06:14:28.655Z,28.20
2023-01-20T06:16:57.960Z,30.10
2023-01-20T06:19:27.466Z,26.80
2023-01-20T06:21:56.613Z,32.47
2023-01-20T06:24:26.225Z,29.33
2023-01-20T06:26:55.519Z,26.35
2023-01-20T06:29:26.384Z,24.08
2023-01-20T06:31:55.914Z,24.67
2023-01-20T06:34:25.429Z,22.83
2023-01-20T06:36:54.619Z,26.05
2023-01-20T06:39:24.195Z,25.30
2023-01-20T06:41:53.475Z,27.45
2023-01-20T06:44:22.930Z,26.90
2023-01-20T06:46:53.448Z,23.30
2023-01-20T06:49:22.941Z,25.85
2023-01-20T06:51:52.194Z,28.40
2023-01-20T06:54:21.860Z,27.40
2023-01-20T06:56:51.115Z,30.45
2023-01-20T06:59:20.533Z,38.35
2023-01-20T07:01:50.469Z,28.88
2023-01-20T07:04:21.491Z,24.92
2023-01-20T07:06:50.712Z,21.95
2023-01-20T07:09:20.146Z,20.02
2023-01-20T07:11:49.247Z,23.23
2023-01-20T07:14:18.687Z,27.73
2023-01-20T07:16:48.627Z,30.33
2023-01-20T07:19:18.348Z,24.90
2023-01-20T07:21:49.012Z,33.72
2023-01-20T07:24:19.024Z,29.35
2023-01-20T07:26:48.213Z,24.90
2023-01-20T07:29:18.056Z,27.30
2023-01-20T07:31:47.577Z,31.95
2023-01-20T07:34:17.248Z,30.42
2023-01-20T07:36:48.006Z,36.38
2023-01-20T07:39:20.217Z,30.77
2023-01-20T07:41:49.802Z,26.52
2023-01-20T07:44:19.426Z,28.02
2023-01-20T07:46:48.696Z,29.90
2023-01-20T07:49:18.000Z,30.98
2023-01-20T07:51:48.582Z,34.60
2023-01-20T07:54:17.977Z,30.13
2023-01-20T07:56:47.282Z,34.85
2023-01-20T07:59:16.772Z,30.10
2023-01-20T08:01:46.325Z,26.35
2023-01-20T08:04:15.879Z,28.10
2023-01-20T08:06:45.292Z,32.75
2023-01-20T08:09:16.443Z,31.10
2023-01-20T08:11:45.752Z,30.55
2023-01-20T08:14:15.267Z,30.88
2023-01-20T08:16:44.516Z,29.33
2023-01-20T08:19:14.205Z,32.85
2023-01-20T08:21:43.501Z,30.10
2023-01-20T08:24:13.219Z,25.40
2023-01-20T08:26:44.106Z,32.20
2023-01-20T08:29:13.610Z,38.03
2023-01-20T08:31:43.143Z,28.42
2023-01-20T08:34:13.308Z,32.38
2023-01-20T08:36:43.555Z,32.95
2023-01-20T08:39:18.138Z,29.67
2023-01-20T08:41:49.983Z,36.53
2023-01-20T08:44:20.515Z,32.90
2023-01-20T08:46:52.819Z,34.20
2023-01-20T08:49:23.667Z,31.08
2023-01-20T08:51:53.177Z,28.85
2023-01-20T08:54:23.002Z,30.23
2023-01-20T08:56:54.342Z,28.25
2023-01-20T08:59:24.038Z,35.75
2023-01-20T09:01:53.229Z,32.88
2023-01-20T09:04:22.685Z,29.92
2023-01-20T09:06:52.860Z,35.47
2023-01-20T09:09:24.335Z,32.03
2023-01-20T09:11:54.854Z,29.48
2023-01-20T09:14:26.115Z,35.35
2023-01-20T09:16:55.490Z,34.47
2023-01-20T09:19:24.991Z,33.42
2023-01-20T09:21:54.528Z,33.20
2023-01-20T09:24:24.715Z,29.60
2023-01-20T09:26:56.907Z,31.25
2023-01-20T09:29:26.825Z,35.67
2023-01-20T09:31:58.942Z,25.30
2023-01-20T09:34:30.340Z,22.92
2023-01-20T09:37:21.426Z,31.63
2023-01-20T09:40:08.566Z,30.65
2023-01-20T09:43:10.000Z,27.23
2023-01-20T09:45:46.593Z,31.00
2023-01-20T09:48:43.949Z,32.75
2023-01-20T09:51:39.268Z,24.20
2023-01-20T09:54:15.963Z,29.10
2023-01-20T09:56:51.326Z,25.42
2023-01-20T09:59:28.282Z,27.33
2023-01-20T10:02:02.741Z,33.78
2023-01-20T10:04:38.075Z,28.27
2023-01-20T10:07:12.844Z,27.67
2023-01-20T10:09:47.418Z,24.90
2023-01-20T10:12:21.385Z,30.95
2023-01-20T10:14:56.253Z,29.90
2023-01-20T10:17:31.025Z,29.47
2023-01-20T10:20:06.151Z,26.83
2023-01-20T10:22:43.814Z,21.77
2023-01-20T10:25:19.330Z,23.88
2023-01-20T10:27:54.702Z,24.80
2023-01-20T10:30:31.539Z,25.30
2023-01-20T10:33:06.739Z,24.52
2023-01-20T10:35:38.970Z,25.02
2023-01-20T10:38:19.283Z,28.00
2023-01-20T10:40:55.130Z,28.50
2023-01-20T10:43:25.038Z,27.40
2023-01-20T10:46:12.627Z,24.85
2023-01-20T10:49:03.634Z,30.35
2023-01-20T10:51:44.229Z,32.13
2023-01-20T10:54:27.957Z,32.92
2023-01-20T10:57:00.436Z,29.02
2023-01-20T10:59:32.946Z,29.60
2023-01-20T11:02:15.454Z,29.67
2023-01-20T11:04:46.663Z,30.92
2023-01-20T11:07:19.718Z,29.85
2023-01-20T11:09:50.608Z,27.50
2023-01-20T11:12:30.422Z,26.42
2023-01-20T11:15:02.064Z,26.52
2023-01-20T11:17:32.889Z,28.92
2023-01-20T11:20:07.443Z,36.58
2023-01-20T11:22:42.644Z,31.45
2023-01-20T11:25:26.811Z,26.70
2023-01-20T11:27:58.268Z,32.80
2023-01-20T11:30:30.911Z,34.38
2023-01-20T11:33:19.407Z,24.27
2023-01-20T11:36:03.136Z,30.05
2023-01-20T11:38:42.175Z,30.20
2023-01-20T11:41:21.463Z,28.00
2023-01-20T11:43:51.576Z,28.73
2023-01-20T11:46:28.525Z,34.83
2023-01-20T11:49:18.868Z,30.60
2023-01-20T11:51:51.884Z,28.45
2023-01-20T11:54:23.134Z,30.48
2023-01-20T11:56:56.683Z,31.00
2023-01-20T11:59:29.193Z,34.45
2023-01-20T12:02:01.945Z,29.40
2023-01-20T12:04:58.237Z,27.17
2023-01-20T12:07:32.094Z,34.03
2023-01-20T12:10:06.247Z,29.80
2023-01-20T12:12:43.886Z,31.13
2023-01-20T12:15:22.096Z,41.88
2023-01-20T12:17:59.853Z,27.00
2023-01-20T12:20:45.677Z,29.92
2023-01-20T12:23:33.971Z,33.63
2023-01-20T12:26:05.958Z,31.35
2023-01-20T12:28:42.260Z,33.28
2023-01-20T12:31:12.558Z,32.67
2023-01-20T12:33:45.526Z,32.35
2023-01-20T12:36:43.181Z,34.35
2023-01-20T12:39:40.054Z,33.38
2023-01-20T12:45:05.074Z,31.02
2023-01-20T12:47:50.060Z,35.33
2023-01-20T12:50:31.939Z,31.23
2023-01-20T12:53:21.439Z,44.47
2023-01-20T12:56:04.529Z,32.15
2023-01-20T12:58:44.749Z,30.08
2023-01-20T13:01:41.133Z,29.08
2023-01-20T13:04:37.833Z,26.98
2023-01-20T13:12:14.560Z,26.58
2023-01-20T13:14:47.405Z,24.88
2023-01-20T13:17:23.621Z,27.35
2023-01-20T13:19:57.880Z,26.55
2023-01-20T13:22:28.008Z,30.67
2023-01-20T13:24:59.680Z,27.80
2023-01-20T13:27:34.092Z,28.00
2023-01-20T13:30:05.167Z,38.17
2023-01-20T13:32:36.894Z,34.95
2023-01-20T13:35:46.159Z,34.50
2023-01-20T13:38:24.331Z,28.38
2023-01-20T13:40:56.925Z,33.42
2023-01-20T13:43:47.030Z,39.40
2023-01-20T13:46:48.618Z,40.45
2023-01-20T13:49:47.583Z,40.45
2023-01-20T13:52:17.502Z,37.45
2023-01-20T13:54:48.822Z,40.50
2023-01-20T13:57:37.984Z,37.05
2023-01-20T14:00:17.846Z,38.75
2023-01-20T14:02:48.885Z,148.02
2023-01-20T14:05:31.325Z,99.22
2023-01-20T14:08:01.396Z,52.33
2023-01-20T14:10:31.028Z,57.13
2023-01-20T14:13:00.177Z,161.52
2023-01-20T14:15:40.096Z,107.03
2023-01-20T14:18:18.907Z,35.50
2023-01-20T14:21:16.889Z,74.90
2023-01-20T14:23:47.230Z,75.57
2023-01-20T14:26:23.857Z,45.85
2023-01-20T14:28:54.650Z,39.60
2023-01-20T14:31:37.648Z,36.20
2023-01-20T14:34:26.914Z,56.00
2023-01-20T14:36:58.894Z,57.40
2023-01-20T14:39:30.387Z,53.42
2023-01-20T14:42:01.135Z,40.00
2023-01-20T14:44:33.325Z,33.95
2023-01-20T14:47:05.672Z,37.58
2023-01-20T14:49:39.440Z,37.70
2023-01-20T14:52:13.782Z,35.25
2023-01-20T14:54:45.613Z,38.08
2023-01-20T15:02:31.840Z,30.05
2023-01-20T15:05:02.001Z,41.65
2023-01-20T15:07:31.413Z,82.72
2023-01-20T15:10:09.103Z,62.90
2023-01-20T15:12:53.687Z,46.88
2023-01-20T15:15:28.666Z,50.40
2023-01-20T15:18:23.694Z,64.20
2023-01-20T15:21:11.727Z,60.03
2023-01-20T15:23:51.299Z,51.72
2023-01-20T15:26:27.801Z,42.42
2023-01-20T15:28:58.714Z,55.85
2023-01-20T15:31:28.382Z,68.55
2023-01-20T15:33:58.973Z,44.13
2023-01-20T15:36:33.170Z,46.05
2023-01-20T15:39:02.444Z,39.90
2023-01-20T15:41:31.863Z,40.83
2023-01-20T15:44:01.013Z,48.83
2023-01-20T15:46:30.896Z,48.20
2023-01-20T15:49:01.896Z,49.83
2023-01-20T15:56:45.172Z,82.13
2023-01-20T15:59:17.225Z,61.10
2023-01-20T16:01:50.023Z,60.45
2023-01-20T16:04:24.529Z,65.72
2023-01-20T16:06:54.304Z,46.92
2023-01-20T16:09:29.985Z,46.22
2023-01-20T16:11:59.357Z,50.08
2023-01-20T16:14:29.105Z,48.80
2023-01-20T16:16:58.548Z,51.03
2023-01-20T16:19:29.564Z,49.13
2023-01-20T16:21:58.739Z,50.65
2023-01-20T16:24:28.263Z,55.75
2023-01-20T16:26:57.594Z,52.85
2023-01-20T16:29:27.101Z,50.00
2023-01-20T16:31:56.414Z,46.72
2023-01-20T16:34:25.890Z,56.22
2023-01-20T16:36:56.382Z,56.35
2023-01-20T16:39:25.899Z,56.05
2023-01-20T16:41:55.226Z,49.72
2023-01-20T16:44:25.002Z,51.30
2023-01-20T16:46:54.305Z,55.88
2023-01-20T16:49:23.848Z,54.92
2023-01-20T16:51:53.022Z,55.70
2023-01-20T16:54:24.057Z,49.92
2023-01-20T16:56:53.199Z,54.40
2023-01-20T16:59:22.862Z,60.53
2023-01-20T17:01:52.306Z,60.05
2023-01-20T17:04:21.969Z,73.95
2023-01-20T17:06:53.328Z,51.72
2023-01-20T17:09:24.450Z,46.55
2023-01-20T17:11:53.779Z,59.00
2023-01-20T17:14:23.348Z,52.67
2023-01-20T17:16:52.691Z,59.13
2023-01-20T17:19:22.247Z,68.82
2023-01-20T17:21:51.640Z,67.18
2023-01-20T17:24:21.291Z,55.33
2023-01-20T17:26:51.950Z,52.00
2023-01-20T17:29:22.053Z,61.60
2023-01-20T17:31:51.544Z,48.70
2023-01-20T17:34:21.214Z,59.10
2023-01-20T17:36:50.832Z,53.42
2023-01-20T17:39:20.365Z,59.45
2023-01-20T17:41:50.876Z,61.40
2023-01-20T17:44:20.404Z,55.05
2023-01-20T17:46:51.046Z,51.90
2023-01-20T17:49:20.497Z,52.13
2023-01-20T17:51:49.942Z,49.97
2023-01-20T17:54:19.794Z,53.00
2023-01-20T17:56:50.511Z,76.15
2023-01-20T17:59:20.002Z,61.33
2023-01-20T18:01:52.465Z,62.03
2023-01-20T18:04:22.261Z,164.23
2023-01-20T18:06:51.565Z,167.45
2023-01-20T18:09:21.133Z,193.38
2023-01-20T18:11:51.821Z,152.88
2023-01-20T18:14:21.441Z,86.88
2023-01-20T18:16:50.704Z,147.02
2023-01-20T18:19:20.365Z,97.35
2023-01-20T18:21:49.781Z,66.35
2023-01-20T18:24:19.416Z,62.28
2023-01-20T18:26:50.128Z,60.03
2023-01-20T18:29:19.637Z,53.13
2023-01-20T18:31:49.541Z,41.67
2023-01-20T18:34:19.236Z,41.67
2023-01-20T18:36:49.297Z,54.55
2023-01-20T18:39:20.285Z,67.15
2023-01-20T18:41:51.991Z,61.28
2023-01-20T18:44:23.229Z,53.40
2023-01-20T18:46:52.483Z,50.40
2023-01-20T18:49:22.191Z,46.70
2023-01-20T18:51:51.479Z,62.40
2023-01-20T18:54:22.312Z,53.05
2023-01-20T18:56:53.234Z,53.80
2023-01-20T18:59:22.702Z,49.83
2023-01-20T19:01:52.032Z,56.65
2023-01-20T19:04:21.869Z,84.50
2023-01-20T19:06:51.184Z,56.03
2023-01-20T19:09:21.220Z,57.58
2023-01-20T19:11:52.006Z,51.05
2023-01-20T19:14:21.620Z,41.65
2023-01-20T19:16:51.016Z,49.80
2023-01-20T19:19:20.610Z,49.97
2023-01-20T19:21:52.966Z,54.17
2023-01-20T19:24:27.294Z,55.80
2023-01-20T19:27:00.351Z,55.10
2023-01-20T19:29:30.376Z,47.22
2023-01-20T19:31:59.652Z,49.42
2023-01-20T19:34:29.357Z,50.10
2023-01-20T19:36:59.980Z,54.15
2023-01-20T19:39:29.556Z,56.50
2023-01-20T19:42:00.827Z,59.88
2023-01-20T19:44:30.728Z,53.83
2023-01-20T19:47:04.193Z,74.50
2023-01-20T19:49:33.821Z,149.90
2023-01-20T19:52:03.203Z,63.60
2023-01-20T19:54:33.775Z,70.07
2023-01-20T19:57:04.626Z,70.32
2023-01-20T19:59:34.154Z,65.75
2023-01-20T20:02:03.782Z,61.13
2023-01-20T20:04:33.611Z,58.78
2023-01-20T20:07:03.176Z,63.47
2023-01-20T20:09:32.865Z,54.53
2023-01-20T20:12:06.167Z,60.33
2023-01-20T20:14:35.875Z,58.08
2023-01-20T20:17:05.320Z,55.78
2023-01-20T20:19:35.090Z,64.25
2023-01-20T20:22:04.434Z,85.38
2023-01-20T20:24:34.207Z,51.83
2023-01-20T20:27:05.169Z,52.55
2023-01-20T20:29:34.874Z,49.42
2023-01-20T20:32:04.149Z,43.05
2023-01-20T20:34:34.321Z,53.50
2023-01-20T20:37:04.049Z,50.55
2023-01-20T20:39:33.995Z,44.78
2023-01-20T20:42:04.832Z,48.28
2023-01-20T20:44:35.041Z,46.13
2023-01-20T20:47:04.415Z,45.72
2023-01-20T20:49:34.173Z,48.53
2023-01-20T20:52:03.746Z,50.20
2023-01-20T20:54:33.282Z,45.42
2023-01-20T20:57:03.910Z,89.53
2023-01-20T20:59:33.483Z,96.28
2023-01-20T21:02:02.850Z,90.80
2023-01-20T21:04:32.618Z,81.53
2023-01-20T21:07:02.264Z,78.90
2023-01-20T21:09:31.805Z,69.88
2023-01-20T21:12:01.041Z,69.30
2023-01-20T21:14:31.933Z,67.55
2023-01-20T21:17:01.484Z,59.90
2023-01-20T21:19:31.864Z,56.15
2023-01-20T21:22:01.007Z,65.50
2023-01-20T21:24:30.634Z,47.28
2023-01-20T21:27:01.427Z,52.17
2023-01-20T21:29:32.302Z,54.78
2023-01-20T21:32:01.495Z,56.92
2023-01-20T21:34:31.134Z,50.38
2023-01-20T21:37:00.523Z,49.58
2023-01-20T21:39:30.184Z,53.92
2023-01-20T21:41:59.359Z,47.20
2023-01-20T21:44:33.065Z,51.33
2023-01-20T21:47:05.375Z,48.58
2023-01-20T21:49:52.455Z,48.90
2023-01-20T21:52:41.325Z,64.93
2023-01-20T21:55:12.802Z,55.58
2023-01-20T21:57:42.048Z,61.60
2023-01-20T22:00:13.066Z,71.00
2023-01-20T22:02:45.770Z,85.57
2023-01-20T22:05:15.604Z,89.03
2023-01-20T22:07:47.876Z,68.63
2023-01-20T22:10:18.040Z,71.00
2023-01-20T22:12:47.630Z,61.00
2023-01-20T22:15:17.305Z,60.08
2023-01-20T22:17:47.916Z,60.72
2023-01-20T22:20:18.073Z,106.93
2023-01-20T22:22:47.580Z,94.05
2023-01-20T22:25:18.372Z,87.55
2023-01-20T22:27:49.921Z,71.40
2023-01-20T22:30:19.892Z,72.97
2023-01-20T22:32:50.851Z,84.95
2023-01-20T22:35:20.674Z,64.43
2023-01-20T22:37:49.791Z,61.90
2023-01-20T22:40:19.470Z,77.15
2023-01-20T22:42:48.610Z,55.53
2023-01-20T22:45:18.177Z,69.25
2023-01-20T22:47:47.419Z,64.97
2023-01-20T22:50:18.937Z,50.25
2023-01-20T22:52:48.239Z,58.20
2023-01-20T22:55:17.805Z,51.35
2023-01-20T22:57:47.250Z,54.22
2023-01-20T23:00:19.010Z,182.43
2023-01-20T23:02:48.634Z,49.78
2023-01-20T23:05:19.609Z,53.25
2023-01-20T23:07:48.851Z,43.55
2023-01-20T23:10:32.588Z,48.92
2023-01-20T23:13:01.975Z,43.50
2023-01-20T23:15:31.583Z,52.92
2023-01-20T23:18:00.813Z,64.60
2023-01-20T23:20:31.759Z,71.05
2023-01-20T23:23:00.937Z,42.72
2023-01-20T23:25:30.548Z,40.40
2023-01-20T23:27:59.788Z,43.10
2023-01-20T23:30:29.451Z,35.05
2023-01-20T23:32:58.666Z,40.45
2023-01-20T23:35:28.304Z,39.22
2023-01-20T23:37:58.936Z,38.97
2023-01-20T23:40:30.311Z,35.45
2023-01-20T23:42:59.523Z,41.03
2023-01-20T23:45:29.291Z,48.90
2023-01-20T23:47:58.599Z,53.05
2023-01-20T23:50:28.074Z,43.70
2023-01-20T23:52:58.788Z,37.58
2023-01-20T23:55:28.329Z,39.35
2023-01-20T23:57:57.889Z,38.92
